createdAt,value
2018-01-21T00:00:44.518Z,78.5
2018-01-21T00:01:45.232Z,83.3
2018-01-21T00:02:46.008Z,81.6
2018-01-21T00:03:46.833Z,89.8
2018-01-21T00:04:47.562Z,84.6
2018-01-21T00:05:48.328Z,92.0
2018-01-21T00:06:49.100Z,90.1
2018-01-21T00:07:49.910Z,92.1
2018-01-21T00:08:50.630Z,89.9
2018-01-21T00:09:51.351Z,90.2
2018-01-21T00:10:52.063Z,85.5
2018-01-21T00:11:52.873Z,96.1
2018-01-21T00:12:53.692Z,89.8
2018-01-21T00:13:54.469Z,96.7
2018-01-21T00:14:55.295Z,97.2
2018-01-21T00:15:56.078Z,108.7
2018-01-21T00:16:56.814Z,103.9
2018-01-21T00:17:57.598Z,116.4
2018-01-21T00:18:58.312Z,109.9
2018-01-21T00:19:59.319Z,95.2
2018-01-21T00:21:00.054Z,106.2
2018-01-21T00:22:00.788Z,99.9
2018-01-21T00:23:01.503Z,115.3
2018-01-21T00:24:02.285Z,125.6
2018-01-21T00:25:03.108Z,118.1
2018-01-21T00:26:03.891Z,111.9
2018-01-21T00:27:04.696Z,100.7
2018-01-21T00:28:05.467Z,101.6
2018-01-21T00:29:06.207Z,100.6
2018-01-21T00:30:07.029Z,95.3
2018-01-21T00:31:07.849Z,100.5
2018-01-21T00:32:08.626Z,88.3
2018-01-21T00:33:09.368Z,91.9
2018-01-21T00:34:10.073Z,102.2
2018-01-21T00:35:10.932Z,88.6
2018-01-21T00:36:11.712Z,99.8
2018-01-21T00:37:12.458Z,88.0
2018-01-21T00:38:13.220Z,98.7
2018-01-21T00:39:13.967Z,88.7
2018-01-21T00:40:14.685Z,91.6
2018-01-21T00:41:15.466Z,92.7
2018-01-21T00:42:16.601Z,93.0
2018-01-21T00:43:17.308Z,97.6
2018-01-21T00:44:18.073Z,108.1
2018-01-21T00:45:18.854Z,112.9
2018-01-21T00:46:19.629Z,99.6
2018-01-21T00:47:20.713Z,106.8
2018-01-21T00:48:21.544Z,100.8
2018-01-21T00:49:22.304Z,96.9
2018-01-21T00:50:23.038Z,105.9
2018-01-21T00:51:23.762Z,111.7
2018-01-21T00:52:24.558Z,126.2
2018-01-21T00:53:25.264Z,121.3
2018-01-21T00:54:25.987Z,120.5
2018-01-21T00:55:26.718Z,118.0
2018-01-21T00:56:27.458Z,130.0
2018-01-21T00:57:28.257Z,121.2
2018-01-21T00:58:29.057Z,131.3
2018-01-21T00:59:29.881Z,121.2
2018-01-21T01:00:30.679Z,125.8
2018-01-21T01:01:31.468Z,136.9
2018-01-21T01:02:32.239Z,137.0
2018-01-21T01:03:33.035Z,133.1
2018-01-21T01:04:33.824Z,142.8
2018-01-21T01:05:34.546Z,142.6
2018-01-21T01:06:35.389Z,138.0
2018-01-21T01:07:36.154Z,141.4
2018-01-21T01:08:36.869Z,149.0
2018-01-21T01:09:37.711Z,137.8
2018-01-21T01:10:38.391Z,131.4
2018-01-21T01:11:39.191Z,140.5
2018-01-21T01:12:40.023Z,128.2
2018-01-21T01:13:40.829Z,142.9
2018-01-21T01:14:41.663Z,121.4
2018-01-21T01:15:42.401Z,140.4
2018-01-21T01:16:43.155Z,129.8
2018-01-21T01:17:43.945Z,130.1
2018-01-21T01:18:44.682Z,135.1
2018-01-21T01:19:45.438Z,142.4
2018-01-21T01:20:46.249Z,152.2
2018-01-21T01:21:47.070Z,137.3
2018-01-21T01:22:47.796Z,132.6
2018-01-21T01:23:48.660Z,125.6
2018-01-21T01:24:49.468Z,147.9
2018-01-21T01:25:50.231Z,137.9
2018-01-21T01:26:51.036Z,129.4
2018-01-21T01:27:51.809Z,135.4
2018-01-21T01:28:52.540Z,132.3
2018-01-21T01:29:53.269Z,121.8
2018-01-21T01:30:54.050Z,148.5
2018-01-21T01:31:54.852Z,144.1
2018-01-21T01:32:55.639Z,141.0
2018-01-21T01:33:56.447Z,141.5
2018-01-21T01:34:57.255Z,151.9
2018-01-21T01:35:58.040Z,131.4
2018-01-21T01:36:58.881Z,133.7
2018-01-21T01:37:59.606Z,121.0
2018-01-21T01:39:00.431Z,134.2
2018-01-21T01:40:01.235Z,124.5
2018-01-21T01:41:02.008Z,141.4
2018-01-21T01:42:02.817Z,140.1
2018-01-21T01:43:03.594Z,130.0
2018-01-21T01:44:04.316Z,121.3
2018-01-21T01:45:05.129Z,131.6
2018-01-21T01:46:05.872Z,143.3
2018-01-21T01:47:06.668Z,140.3
2018-01-21T01:48:07.398Z,131.4
2018-01-21T01:49:08.227Z,128.6
2018-01-21T01:50:08.969Z,143.1
2018-01-21T01:51:09.751Z,145.2
2018-01-21T01:52:10.473Z,135.2
2018-01-21T01:53:11.208Z,146.2
2018-01-21T01:54:11.995Z,161.2
2018-01-21T01:55:12.698Z,145.5
2018-01-21T01:56:13.449Z,145.0
2018-01-21T01:57:14.155Z,142.4
2018-01-21T01:58:14.901Z,137.6
2018-01-21T01:59:15.716Z,136.1
2018-01-21T02:00:16.488Z,152.6
2018-01-21T02:01:17.224Z,153.4
2018-01-21T02:02:18.077Z,147.5
2018-01-21T02:03:18.864Z,150.0
2018-01-21T02:04:19.639Z,161.3
2018-01-21T02:05:20.366Z,147.0
2018-01-21T02:06:21.098Z,154.4
2018-01-21T02:07:21.916Z,147.4
2018-01-21T02:08:22.732Z,140.6
2018-01-21T02:09:23.868Z,160.3
2018-01-21T02:10:24.535Z,158.0
2018-01-21T02:11:25.278Z,155.4
2018-01-21T02:12:27.141Z,165.9
2018-01-21T02:13:29.619Z,159.9
2018-01-21T02:14:32.415Z,151.3
2018-01-21T02:15:34.544Z,166.8
2018-01-21T02:16:36.639Z,164.9
2018-01-21T02:17:38.733Z,190.0
2018-01-21T02:18:40.754Z,178.1
2018-01-21T02:19:43.411Z,166.7
2018-01-21T02:20:45.500Z,161.6
2018-01-21T02:21:47.544Z,170.8
2018-01-21T02:22:49.610Z,166.7
2018-01-21T02:23:51.610Z,169.1
2018-01-21T02:24:54.258Z,155.1
2018-01-21T02:25:56.777Z,166.4
2018-01-21T02:26:58.914Z,173.6
2018-01-21T02:28:00.991Z,167.3
2018-01-21T02:29:03.039Z,186.1
2018-01-21T02:30:04.938Z,177.2
2018-01-21T02:31:07.575Z,172.5
2018-01-21T02:32:09.584Z,184.0
2018-01-21T02:33:11.673Z,178.3
2018-01-21T02:34:13.853Z,180.9
2018-01-21T02:35:15.933Z,184.2
2018-01-21T02:36:18.166Z,176.5
2018-01-21T02:37:20.277Z,183.2
2018-01-21T02:38:22.152Z,193.4
2018-01-21T02:39:24.218Z,188.3
2018-01-21T02:40:26.355Z,182.0
2018-01-21T02:41:28.844Z,179.8
2018-01-21T02:42:30.968Z,196.0
2018-01-21T02:43:32.850Z,192.7
2018-01-21T02:44:35.032Z,186.1
2018-01-21T02:45:37.153Z,181.9
2018-01-21T02:46:39.661Z,192.3
2018-01-21T02:47:41.751Z,194.0
2018-01-21T02:48:42.961Z,187.7
2018-01-21T02:49:45.209Z,179.6
2018-01-21T02:50:47.175Z,193.2
2018-01-21T02:51:49.709Z,189.1
2018-01-21T02:52:52.228Z,189.5
2018-01-21T02:53:54.340Z,192.7
2018-01-21T02:54:56.442Z,198.8
2018-01-21T02:55:58.579Z,199.8
2018-01-21T02:57:00.979Z,195.8
2018-01-21T02:58:03.138Z,198.0
2018-01-21T02:59:05.186Z,200.4
2018-01-21T03:00:07.326Z,182.6
2018-01-21T03:01:09.260Z,191.5
2018-01-21T03:02:11.779Z,192.8
2018-01-21T03:03:13.868Z,190.0
2018-01-21T03:04:15.883Z,180.9
2018-01-21T03:05:17.957Z,201.1
2018-01-21T03:06:18.925Z,217.1
2018-01-21T03:07:19.775Z,188.0
2018-01-21T03:08:20.506Z,205.5
2018-01-21T03:09:21.293Z,202.3
2018-01-21T03:10:22.256Z,212.2
2018-01-21T03:11:22.966Z,208.3
2018-01-21T03:12:24.057Z,222.1
2018-01-21T03:13:24.767Z,218.6
2018-01-21T03:14:25.491Z,211.7
2018-01-21T03:15:26.231Z,221.1
2018-01-21T03:16:27.013Z,206.4
2018-01-21T03:17:27.800Z,236.9
2018-01-21T03:18:28.622Z,235.9
2018-01-21T03:19:29.350Z,232.6
2018-01-21T03:20:30.125Z,234.6
2018-01-21T03:21:30.845Z,227.1
2018-01-21T03:22:31.579Z,226.3
2018-01-21T03:23:32.293Z,237.6
2018-01-21T03:24:33.092Z,214.1
2018-01-21T03:25:33.827Z,210.5
2018-01-21T03:26:34.556Z,207.9
2018-01-21T03:27:35.353Z,215.9
2018-01-21T03:28:36.113Z,218.3
2018-01-21T03:29:36.912Z,217.4
2018-01-21T03:30:37.681Z,239.0
2018-01-21T03:31:38.443Z,236.3
2018-01-21T03:32:39.236Z,233.6
2018-01-21T03:33:39.961Z,240.4
2018-01-21T03:34:40.753Z,221.4
2018-01-21T03:35:41.486Z,255.6
2018-01-21T03:36:42.192Z,261.8
2018-01-21T03:37:42.965Z,251.3
2018-01-21T03:38:43.701Z,244.4
2018-01-21T03:39:44.461Z,260.0
2018-01-21T03:40:45.187Z,212.7
2018-01-21T03:41:45.995Z,238.6
2018-01-21T03:42:46.790Z,255.4
2018-01-21T03:43:47.495Z,246.6
2018-01-21T03:44:48.218Z,243.1
2018-01-21T03:45:48.950Z,234.7
2018-01-21T03:46:49.664Z,227.4
2018-01-21T03:47:50.391Z,220.6
2018-01-21T03:48:51.166Z,218.9
2018-01-21T03:49:51.906Z,226.0
2018-01-21T03:50:52.933Z,227.1
2018-01-21T03:51:53.654Z,236.5
2018-01-21T03:52:54.360Z,259.8
2018-01-21T03:53:55.176Z,230.0
2018-01-21T03:54:55.905Z,274.1
2018-01-21T03:55:56.638Z,322.4
2018-01-21T03:56:57.399Z,299.1
2018-01-21T03:57:58.210Z,266.0
2018-01-21T03:58:58.940Z,283.4
2018-01-21T03:59:59.668Z,249.2
2018-01-21T04:01:00.439Z,293.4
2018-01-21T04:02:01.176Z,246.9
2018-01-21T04:03:02.189Z,277.5
2018-01-21T04:04:02.986Z,328.2
2018-01-21T04:05:03.733Z,283.7
2018-01-21T04:06:04.503Z,298.8
2018-01-21T04:07:05.221Z,275.9
2018-01-21T04:08:05.982Z,237.9
2018-01-21T04:09:06.704Z,308.9
2018-01-21T04:10:07.516Z,290.9
2018-01-21T04:11:08.243Z,328.9
2018-01-21T04:12:08.976Z,277.3
2018-01-21T04:13:09.695Z,285.9
2018-01-21T04:14:10.440Z,248.9
2018-01-21T04:15:11.258Z,245.9
2018-01-21T04:16:12.056Z,253.2
2018-01-21T04:17:12.846Z,266.6
2018-01-21T04:18:13.615Z,249.7
2018-01-21T04:19:14.343Z,237.1
2018-01-21T04:20:15.067Z,213.9
2018-01-21T04:21:15.786Z,187.0
2018-01-21T04:22:16.504Z,200.3
2018-01-21T04:23:17.634Z,224.5
2018-01-21T04:24:18.323Z,206.1
2018-01-21T04:25:19.107Z,180.3
2018-01-21T04:26:19.895Z,185.2
2018-01-21T04:27:20.627Z,192.1
2018-01-21T04:28:21.351Z,204.4
2018-01-21T04:29:22.075Z,164.3
2018-01-21T04:30:22.810Z,169.0
2018-01-21T04:31:23.540Z,144.3
2018-01-21T04:32:24.365Z,116.6
2018-01-21T04:33:25.159Z,109.5
2018-01-21T04:34:25.896Z,126.2
2018-01-21T04:35:26.616Z,110.4
2018-01-21T04:36:27.342Z,99.9
2018-01-21T04:37:28.117Z,114.6
2018-01-21T04:38:28.924Z,110.2
2018-01-21T04:39:29.723Z,117.8
2018-01-21T04:40:30.447Z,148.2
2018-01-21T04:41:31.172Z,126.7
2018-01-21T04:42:32.244Z,99.6
2018-01-21T04:43:32.988Z,117.9
2018-01-21T04:44:33.770Z,81.0
2018-01-21T04:45:34.495Z,83.9
2018-01-21T04:46:35.228Z,109.5
2018-01-21T04:47:36.110Z,317.5
2018-01-21T04:48:36.887Z,141.9
2018-01-21T04:49:37.673Z,129.4
2018-01-21T04:50:38.397Z,112.6
2018-01-21T04:51:39.113Z,134.9
2018-01-21T04:52:39.965Z,105.9
2018-01-21T04:53:40.694Z,107.8
2018-01-21T04:54:41.415Z,108.0
2018-01-21T04:55:42.221Z,121.0
2018-01-21T04:56:42.955Z,109.0
2018-01-21T04:57:43.673Z,129.4
2018-01-21T04:58:44.393Z,114.5
2018-01-21T04:59:45.135Z,116.2
2018-01-21T05:00:45.887Z,106.4
2018-01-21T05:01:46.652Z,104.4
2018-01-21T05:02:47.379Z,120.2
2018-01-21T05:03:48.485Z,105.4
2018-01-21T05:04:49.214Z,107.0
2018-01-21T05:05:49.937Z,114.3
2018-01-21T05:06:50.667Z,86.7
2018-01-21T05:07:51.471Z,95.6
2018-01-21T05:08:52.273Z,97.8
2018-01-21T05:09:52.997Z,93.3
2018-01-21T05:10:53.727Z,110.1
2018-01-21T05:11:54.537Z,123.6
2018-01-21T05:12:55.262Z,116.0
2018-01-21T05:13:56.116Z,129.1
2018-01-21T05:14:56.838Z,121.3
2018-01-21T05:15:57.566Z,117.3
2018-01-21T05:16:58.298Z,128.4
2018-01-21T05:17:59.078Z,129.6
2018-01-21T05:18:59.856Z,143.6
2018-01-21T05:20:00.608Z,143.0
2018-01-21T05:21:01.336Z,152.6
2018-01-21T05:22:02.057Z,129.6
2018-01-21T05:23:02.783Z,126.3
2018-01-21T05:24:03.569Z,126.7
2018-01-21T05:25:04.293Z,144.5
2018-01-21T05:26:05.084Z,131.0
2018-01-21T05:27:05.812Z,138.5
2018-01-21T05:28:06.846Z,149.6
2018-01-21T05:29:07.563Z,148.7
2018-01-21T05:30:08.301Z,215.8
2018-01-21T05:31:09.040Z,267.7
2018-01-21T05:32:09.828Z,213.1
2018-01-21T05:33:10.640Z,183.1
2018-01-21T05:34:11.360Z,171.3
2018-01-21T05:35:12.158Z,172.9
2018-01-21T05:36:12.957Z,192.1
2018-01-21T05:37:13.676Z,179.5
2018-01-21T05:38:14.446Z,195.6
2018-01-21T05:39:15.166Z,180.3
2018-01-21T05:40:15.887Z,179.8
2018-01-21T05:41:16.603Z,175.8
2018-01-21T05:42:17.323Z,189.4
2018-01-21T05:43:18.058Z,229.0
2018-01-21T05:44:18.786Z,206.9
2018-01-21T05:45:19.576Z,200.6
2018-01-21T05:46:20.601Z,226.9
2018-01-21T05:47:21.328Z,220.3
2018-01-21T05:48:22.053Z,233.9
2018-01-21T05:49:22.785Z,210.9
2018-01-21T05:50:23.612Z,239.2
2018-01-21T05:51:24.493Z,223.3
2018-01-21T05:52:25.196Z,218.0
2018-01-21T05:53:25.924Z,228.1
2018-01-21T05:54:26.642Z,247.1
2018-01-21T05:55:27.376Z,260.3
2018-01-21T05:56:28.155Z,237.7
2018-01-21T05:57:28.871Z,314.3
2018-01-21T05:58:29.601Z,285.8
2018-01-21T05:59:30.325Z,279.9
2018-01-21T06:00:31.070Z,263.6
2018-01-21T06:01:31.795Z,283.4
2018-01-21T06:02:32.526Z,266.0
2018-01-21T06:03:33.284Z,297.0
2018-01-21T06:04:34.024Z,271.5
2018-01-21T06:05:34.757Z,308.8
2018-01-21T06:06:35.704Z,294.4
2018-01-21T06:07:36.431Z,264.5
2018-01-21T06:08:37.161Z,245.8
2018-01-21T06:09:37.935Z,266.6
2018-01-21T06:10:38.666Z,258.0
2018-01-21T06:11:39.393Z,268.6
2018-01-21T06:12:40.122Z,254.0
2018-01-21T06:13:40.853Z,251.8
2018-01-21T06:14:41.598Z,256.5
2018-01-21T06:15:42.323Z,306.1
2018-01-21T06:16:43.346Z,269.1
2018-01-21T06:17:44.112Z,264.0
2018-01-21T06:18:44.909Z,261.4
2018-01-21T06:19:45.635Z,288.1
2018-01-21T06:20:46.351Z,310.7
2018-01-21T06:21:47.127Z,310.8
2018-01-21T06:22:47.856Z,320.8
2018-01-21T06:23:48.597Z,277.6
2018-01-21T06:24:49.327Z,273.6
2018-01-21T06:25:50.045Z,266.6
2018-01-21T06:26:50.778Z,304.0
2018-01-21T06:27:51.552Z,287.6
2018-01-21T06:28:52.286Z,310.3
2018-01-21T06:29:53.064Z,269.4
2018-01-21T06:30:53.809Z,241.3
2018-01-21T06:31:54.657Z,214.8
2018-01-21T06:32:55.465Z,201.0
2018-01-21T06:33:56.187Z,206.9
2018-01-21T06:34:56.996Z,206.4
2018-01-21T06:35:57.713Z,198.8
2018-01-21T06:36:58.504Z,206.9
2018-01-21T06:37:59.237Z,192.5
2018-01-21T06:38:59.953Z,186.3
2018-01-21T06:40:00.725Z,196.8
2018-01-21T06:41:01.430Z,184.4
2018-01-21T06:42:02.146Z,209.7
2018-01-21T06:43:02.882Z,189.9
2018-01-21T06:44:03.616Z,191.3
2018-01-21T06:45:04.344Z,212.0
2018-01-21T06:46:05.065Z,195.6
2018-01-21T06:47:05.845Z,181.3
2018-01-21T06:48:06.597Z,180.2
2018-01-21T06:49:07.408Z,191.1
2018-01-21T06:50:08.294Z,209.4
2018-01-21T06:51:09.025Z,188.5
2018-01-21T06:52:09.759Z,167.0
2018-01-21T06:53:10.534Z,178.5
2018-01-21T06:54:11.252Z,162.0
2018-01-21T06:55:11.985Z,180.0
2018-01-21T06:56:12.782Z,184.8
2018-01-21T06:57:13.515Z,183.0
2018-01-21T06:58:14.287Z,184.6
2018-01-21T06:59:15.017Z,149.7
2018-01-21T07:00:15.874Z,155.0
2018-01-21T07:01:16.599Z,161.4
2018-01-21T07:02:17.326Z,191.3
2018-01-21T07:03:18.115Z,155.5
2018-01-21T07:04:18.828Z,178.0
2018-01-21T07:05:19.551Z,147.4
2018-01-21T07:06:20.272Z,161.5
2018-01-21T07:07:20.993Z,190.4
2018-01-21T07:08:21.773Z,198.6
2018-01-21T07:09:22.498Z,191.7
2018-01-21T07:10:23.334Z,192.6
2018-01-21T07:11:24.156Z,181.9
2018-01-21T07:12:24.952Z,167.0
2018-01-21T07:13:25.798Z,187.8
2018-01-21T07:14:26.600Z,191.4
2018-01-21T07:15:27.387Z,185.8
2018-01-21T07:16:28.103Z,219.0
2018-01-21T07:17:28.818Z,191.9
2018-01-21T07:18:29.602Z,187.6
2018-01-21T07:19:30.387Z,194.8
2018-01-21T07:20:31.125Z,199.9
2018-01-21T07:21:31.936Z,175.9
2018-01-21T07:22:32.705Z,206.3
2018-01-21T07:23:33.447Z,197.0
2018-01-21T07:24:34.165Z,203.6
2018-01-21T07:25:34.884Z,188.8
2018-01-21T07:26:35.665Z,201.8
2018-01-21T07:27:36.706Z,179.1
2018-01-21T07:28:37.436Z,176.6
2018-01-21T07:29:38.173Z,186.6
2018-01-21T07:30:38.944Z,188.2
2018-01-21T07:31:39.662Z,182.4
2018-01-21T07:32:40.646Z,205.7
2018-01-21T07:33:41.360Z,199.0
2018-01-21T07:34:42.075Z,181.5
2018-01-21T07:35:42.788Z,181.9
2018-01-21T07:36:43.584Z,158.9
2018-01-21T07:37:44.447Z,182.2
2018-01-21T07:38:45.236Z,181.8
2018-01-21T07:39:45.955Z,158.1
2018-01-21T07:40:46.680Z,155.5
2018-01-21T07:41:47.434Z,160.8
2018-01-21T07:42:48.152Z,191.7
2018-01-21T07:43:48.888Z,176.8
2018-01-21T07:44:49.688Z,183.0
2018-01-21T07:45:50.414Z,151.3
2018-01-21T07:46:51.187Z,179.1
2018-01-21T07:47:51.923Z,187.9
2018-01-21T07:48:52.726Z,203.8
2018-01-21T07:49:53.434Z,186.3
2018-01-21T07:50:54.236Z,179.2
2018-01-21T07:51:54.965Z,186.8
2018-01-21T07:52:55.685Z,198.6
2018-01-21T07:53:56.410Z,175.7
2018-01-21T07:54:57.135Z,176.4
2018-01-21T07:55:57.866Z,206.5
2018-01-21T07:56:58.598Z,191.2
2018-01-21T07:57:59.317Z,187.1
2018-01-21T07:59:00.042Z,179.1
2018-01-21T08:00:01.073Z,159.1
2018-01-21T08:01:01.805Z,182.0
2018-01-21T08:02:02.527Z,184.9
2018-01-21T08:03:03.250Z,221.3
2018-01-21T08:04:03.984Z,277.2
2018-01-21T08:05:04.765Z,239.3
2018-01-21T08:06:05.496Z,235.8
2018-01-21T08:07:06.228Z,225.2
2018-01-21T08:08:06.995Z,212.9
2018-01-21T08:09:07.757Z,212.6
2018-01-21T08:10:08.495Z,156.7
2018-01-21T08:11:09.226Z,156.9
2018-01-21T08:12:09.961Z,161.1
2018-01-21T08:13:10.751Z,138.4
2018-01-21T08:14:11.548Z,158.0
2018-01-21T08:15:12.251Z,173.3
2018-01-21T08:16:13.063Z,192.8
2018-01-21T08:17:13.807Z,174.8
2018-01-21T08:18:14.537Z,175.7
2018-01-21T08:19:15.313Z,180.0
2018-01-21T08:20:16.030Z,180.5
2018-01-21T08:21:16.776Z,171.1
2018-01-21T08:22:17.513Z,187.8
2018-01-21T08:23:18.245Z,181.6
2018-01-21T08:24:19.024Z,177.7
2018-01-21T08:25:19.754Z,200.3
2018-01-21T08:26:20.479Z,198.4
2018-01-21T08:27:21.216Z,188.3
2018-01-21T08:28:21.929Z,212.4
2018-01-21T08:29:22.965Z,210.6
2018-01-21T08:30:23.696Z,204.4
2018-01-21T08:31:24.425Z,224.2
2018-01-21T08:32:25.160Z,179.4
2018-01-21T08:33:25.905Z,202.9
2018-01-21T08:34:26.687Z,189.7
2018-01-21T08:35:27.486Z,180.8
2018-01-21T08:36:28.215Z,197.4
2018-01-21T08:37:28.966Z,183.8
2018-01-21T08:38:29.689Z,199.6
2018-01-21T08:39:30.488Z,185.4
2018-01-21T08:40:31.243Z,205.7
2018-01-21T08:41:31.945Z,205.0
2018-01-21T08:42:32.671Z,183.4
2018-01-21T08:43:33.442Z,191.5
2018-01-21T08:44:34.226Z,195.0
2018-01-21T08:45:34.958Z,195.5
2018-01-21T08:46:35.734Z,217.6
2018-01-21T08:47:36.453Z,211.9
2018-01-21T08:48:37.180Z,235.5
2018-01-21T08:49:37.916Z,232.0
2018-01-21T08:50:38.678Z,184.8
2018-01-21T08:51:39.756Z,196.5
2018-01-21T08:52:40.492Z,199.3
2018-01-21T08:53:41.240Z,185.0
2018-01-21T08:54:41.964Z,207.6
2018-01-21T08:55:42.696Z,189.6
2018-01-21T08:56:43.492Z,207.8
2018-01-21T08:57:44.343Z,188.5
2018-01-21T08:58:45.014Z,197.8
2018-01-21T08:59:45.746Z,213.0
2018-01-21T09:00:46.507Z,203.9
2018-01-21T09:01:47.360Z,206.6
2018-01-21T09:02:48.096Z,185.2
2018-01-21T09:03:48.827Z,190.9
2018-01-21T09:04:49.565Z,199.6
2018-01-21T09:05:50.298Z,207.3
2018-01-21T09:06:51.138Z,210.7
2018-01-21T09:07:51.858Z,199.3
2018-01-21T09:08:52.594Z,204.8
2018-01-21T09:09:53.318Z,182.9
2018-01-21T09:10:54.047Z,159.1
2018-01-21T09:11:55.170Z,185.8
2018-01-21T09:12:55.896Z,169.4
2018-01-21T09:13:56.674Z,183.5
2018-01-21T09:14:57.456Z,200.2
2018-01-21T09:15:58.186Z,193.4
2018-01-21T09:16:59.214Z,189.3
2018-01-21T09:17:59.947Z,186.8
2018-01-21T09:19:00.665Z,202.2
2018-01-21T09:20:01.385Z,185.4
2018-01-21T09:21:02.188Z,176.3
2018-01-21T09:22:02.927Z,174.9
2018-01-21T09:23:03.654Z,166.2
2018-01-21T09:24:04.385Z,178.8
2018-01-21T09:25:05.119Z,173.2
2018-01-21T09:26:05.826Z,160.6
2018-01-21T09:27:06.565Z,175.0
2018-01-21T09:28:07.298Z,185.7
2018-01-21T09:29:08.091Z,169.4
2018-01-21T09:30:08.823Z,159.4
2018-01-21T09:31:09.627Z,168.1
2018-01-21T09:32:10.357Z,152.1
2018-01-21T09:33:11.103Z,162.9
2018-01-21T09:34:11.864Z,139.2
2018-01-21T09:35:12.584Z,147.6
2018-01-21T09:36:13.316Z,135.7
2018-01-21T09:37:14.044Z,129.5
2018-01-21T09:38:14.808Z,133.3
2018-01-21T09:39:15.585Z,143.0
2018-01-21T09:40:16.319Z,137.9
2018-01-21T09:41:17.121Z,123.3
2018-01-21T09:42:17.854Z,113.9
2018-01-21T09:43:18.627Z,117.5
2018-01-21T09:44:19.405Z,122.7
2018-01-21T09:45:20.126Z,117.2
2018-01-21T09:46:20.849Z,120.9
2018-01-21T09:47:21.586Z,122.0
2018-01-21T09:48:22.324Z,113.2
2018-01-21T09:49:23.130Z,116.9
2018-01-21T09:50:23.927Z,126.6
2018-01-21T09:51:24.645Z,115.6
2018-01-21T09:52:25.380Z,112.1
2018-01-21T09:53:26.178Z,109.4
2018-01-21T09:54:27.010Z,95.5
2018-01-21T09:55:27.746Z,88.5
2018-01-21T09:56:28.503Z,77.9
2018-01-21T09:57:29.375Z,92.5
2018-01-21T09:58:30.113Z,85.0
2018-01-21T09:59:30.914Z,95.6
2018-01-21T10:00:31.648Z,80.8
2018-01-21T10:01:32.388Z,83.2
2018-01-21T10:02:33.105Z,89.4
2018-01-21T10:03:33.886Z,81.0
2018-01-21T10:04:34.601Z,72.2
2018-01-21T10:05:35.376Z,81.2
2018-01-21T10:06:36.106Z,72.5
2018-01-21T10:07:36.880Z,68.8
2018-01-21T10:08:37.616Z,65.3
2018-01-21T10:09:38.345Z,62.8
2018-01-21T10:10:39.053Z,66.5
2018-01-21T10:11:39.780Z,64.7
2018-01-21T10:12:40.503Z,62.3
2018-01-21T10:13:41.226Z,62.9
2018-01-21T10:14:41.968Z,50.1
2018-01-21T10:15:42.696Z,64.6
2018-01-21T10:16:43.447Z,56.4
2018-01-21T10:17:44.487Z,50.5
2018-01-21T10:18:45.221Z,50.1
2018-01-21T10:19:45.971Z,51.5
2018-01-21T10:20:46.691Z,48.9
2018-01-21T10:21:47.417Z,48.8
2018-01-21T10:22:48.201Z,45.2
2018-01-21T10:23:48.927Z,48.1
2018-01-21T10:24:49.660Z,53.3
2018-01-21T10:25:50.387Z,53.3
2018-01-21T10:26:51.133Z,52.5
2018-01-21T10:27:51.863Z,52.8
2018-01-21T10:28:52.694Z,51.1
2018-01-21T10:29:53.718Z,52.7
2018-01-21T10:30:54.464Z,51.6
2018-01-21T10:31:55.193Z,56.1
2018-01-21T10:32:55.952Z,55.7
2018-01-21T10:33:56.684Z,52.4
2018-01-21T10:34:57.534Z,53.5
2018-01-21T10:35:58.337Z,55.2
2018-01-21T10:36:59.013Z,51.7
2018-01-21T10:37:59.758Z,54.8
2018-01-21T10:39:00.486Z,58.1
2018-01-21T10:40:01.518Z,47.0
2018-01-21T10:41:02.335Z,50.6
2018-01-21T10:42:03.063Z,51.4
2018-01-21T10:43:03.791Z,49.4
2018-01-21T10:44:04.612Z,45.7
2018-01-21T10:45:05.478Z,36.8
2018-01-21T10:46:06.205Z,41.2
2018-01-21T10:47:06.952Z,38.2
2018-01-21T10:48:07.672Z,33.4
2018-01-21T10:49:08.430Z,34.3
2018-01-21T10:50:09.249Z,34.6
2018-01-21T10:51:09.964Z,33.5
2018-01-21T10:52:10.706Z,35.1
2018-01-21T10:53:11.434Z,30.9
2018-01-21T10:54:12.247Z,35.1
2018-01-21T10:55:13.037Z,34.6
2018-01-21T10:56:13.775Z,33.0
2018-01-21T10:57:14.501Z,32.3
2018-01-21T10:58:15.232Z,40.2
2018-01-21T10:59:15.988Z,40.6
2018-01-21T11:00:16.785Z,37.1
2018-01-21T11:01:17.515Z,36.6
2018-01-21T11:02:18.225Z,43.3
2018-01-21T11:03:18.951Z,43.0
2018-01-21T11:04:19.734Z,37.9
2018-01-21T11:05:20.460Z,34.8
2018-01-21T11:06:21.189Z,40.4
2018-01-21T11:07:22.047Z,43.5
2018-01-21T11:08:22.766Z,38.7
2018-01-21T11:09:23.499Z,42.1
2018-01-21T11:10:24.219Z,44.8
2018-01-21T11:11:24.939Z,41.0
2018-01-21T11:12:25.731Z,44.8
2018-01-21T11:13:26.517Z,37.8
2018-01-21T11:14:27.660Z,41.4
2018-01-21T11:15:28.377Z,36.6
2018-01-21T11:16:29.189Z,40.0
2018-01-21T11:17:29.934Z,38.3
2018-01-21T11:18:30.725Z,37.8
2018-01-21T11:19:31.493Z,40.0
2018-01-21T11:20:32.286Z,40.5
2018-01-21T11:21:33.020Z,35.7
2018-01-21T11:22:33.801Z,38.5
2018-01-21T11:23:34.528Z,43.4
2018-01-21T11:24:35.273Z,35.0
2018-01-21T11:25:36.016Z,34.0
2018-01-21T11:26:36.684Z,41.7
2018-01-21T11:27:37.431Z,48.7
2018-01-21T11:28:38.173Z,40.3
2018-01-21T11:29:38.896Z,40.8
2018-01-21T11:30:39.637Z,37.4
2018-01-21T11:31:40.453Z,37.6
2018-01-21T11:32:41.193Z,38.7
2018-01-21T11:33:41.981Z,29.7
2018-01-21T11:34:42.714Z,24.1
2018-01-21T11:35:43.448Z,22.2
2018-01-21T11:36:44.177Z,24.4
2018-01-21T11:37:44.918Z,22.6
2018-01-21T11:38:45.737Z,22.7
2018-01-21T11:39:46.478Z,24.6
2018-01-21T11:40:47.216Z,24.5
2018-01-21T11:41:47.942Z,23.8
2018-01-21T11:42:48.673Z,20.1
2018-01-21T11:43:49.405Z,22.3
2018-01-21T11:44:50.132Z,18.8
2018-01-21T11:45:50.912Z,17.6
2018-01-21T11:46:51.638Z,17.0
2018-01-21T11:47:52.500Z,13.7
2018-01-21T11:48:53.230Z,34.2
2018-01-21T11:49:54.019Z,24.5
2018-01-21T11:50:54.739Z,12.7
2018-01-21T11:51:55.462Z,28.2
2018-01-21T11:52:56.393Z,42.2
2018-01-21T11:53:57.144Z,25.4
2018-01-21T11:54:57.872Z,21.2
2018-01-21T11:55:58.597Z,14.1
2018-01-21T11:56:59.337Z,17.5
2018-01-21T11:58:00.074Z,17.8
2018-01-21T11:59:00.888Z,20.5
2018-01-21T12:00:01.589Z,19.1
2018-01-21T12:01:02.326Z,21.8
2018-01-21T12:02:03.070Z,17.5
2018-01-21T12:03:03.808Z,18.2
2018-01-21T12:04:04.897Z,14.9
2018-01-21T12:05:05.635Z,14.6
2018-01-21T12:06:06.366Z,17.4
2018-01-21T12:07:07.087Z,17.2
2018-01-21T12:08:07.876Z,13.6
2018-01-21T12:09:08.659Z,15.9
2018-01-21T12:10:09.455Z,13.0
2018-01-21T12:11:10.185Z,11.3
2018-01-21T12:12:10.915Z,14.6
2018-01-21T12:13:11.650Z,12.2
2018-01-21T12:14:12.678Z,9.9
2018-01-21T12:15:13.463Z,11.7
2018-01-21T12:16:14.230Z,15.1
2018-01-21T12:17:15.018Z,11.7
2018-01-21T12:18:15.756Z,13.3
2018-01-21T12:19:16.532Z,11.4
2018-01-21T12:20:17.248Z,11.9
2018-01-21T12:21:17.968Z,13.1
2018-01-21T12:22:18.784Z,16.3
2018-01-21T12:23:19.519Z,17.2
2018-01-21T12:24:20.246Z,15.6
2018-01-21T12:25:20.984Z,16.9
2018-01-21T12:26:21.783Z,18.9
2018-01-21T12:27:22.500Z,14.4
2018-01-21T12:28:23.235Z,16.2
2018-01-21T12:29:24.013Z,16.3
2018-01-21T12:30:24.745Z,13.0
2018-01-21T12:31:25.463Z,17.0
2018-01-21T12:32:26.207Z,13.5
2018-01-21T12:33:26.945Z,10.7
2018-01-21T12:34:27.963Z,12.1
2018-01-21T12:35:28.712Z,13.5
2018-01-21T12:36:29.436Z,12.9
2018-01-21T12:37:30.363Z,14.3
2018-01-21T12:38:31.138Z,10.6
2018-01-21T12:39:31.873Z,12.4
2018-01-21T12:40:32.601Z,14.2
2018-01-21T12:41:33.325Z,15.9
2018-01-21T12:42:34.360Z,13.1
2018-01-21T12:43:35.150Z,14.5
2018-01-21T12:44:35.873Z,19.8
2018-01-21T12:45:36.617Z,19.1
2018-01-21T12:46:37.393Z,12.3
2018-01-21T12:47:38.124Z,18.3
2018-01-21T12:48:38.832Z,16.1
2018-01-21T12:49:39.577Z,15.3
2018-01-21T12:50:40.391Z,13.3
2018-01-21T12:51:41.152Z,14.4
2018-01-21T12:52:41.887Z,18.9
2018-01-21T12:53:42.615Z,16.2
2018-01-21T12:54:43.337Z,15.3
2018-01-21T12:55:44.150Z,12.1
2018-01-21T12:56:45.175Z,15.7
2018-01-21T12:57:45.905Z,12.0
2018-01-21T12:58:46.647Z,12.0
2018-01-21T12:59:47.386Z,13.0
2018-01-21T13:00:48.187Z,13.9
2018-01-21T13:01:49.230Z,13.8
2018-01-21T13:02:49.961Z,11.1
2018-01-21T13:03:50.677Z,11.7
2018-01-21T13:04:51.407Z,11.8
2018-01-21T13:05:52.151Z,12.4
2018-01-21T13:06:53.342Z,16.2
2018-01-21T13:07:54.114Z,13.8
2018-01-21T13:08:54.848Z,13.6
2018-01-21T13:09:55.654Z,11.8
2018-01-21T13:10:56.447Z,16.4
2018-01-21T13:11:57.179Z,15.7